createdAt,value
2023-05-14T00:00:55.084Z,83.69
2023-05-14T00:03:24.295Z,83.76
2023-05-14T00:05:51.248Z,84.46
2023-05-14T00:08:18.167Z,85.04
2023-05-14T00:10:53.051Z,85.14
2023-05-14T00:13:19.944Z,85.32
2023-05-14T00:15:46.880Z,85.83
2023-05-14T00:18:13.901Z,85.09
2023-05-14T00:20:43.963Z,85.31
2023-05-14T00:23:11.710Z,86.50
2023-05-14T00:25:41.743Z,85.97
2023-05-14T00:28:08.729Z,85.60
2023-05-14T00:30:37.926Z,85.55
2023-05-14T00:33:04.921Z,86.95
2023-05-14T00:35:38.088Z,85.87
2023-05-14T00:38:08.043Z,86.96
2023-05-14T00:40:46.197Z,86.73
2023-05-14T00:43:13.193Z,87.02
2023-05-14T00:45:40.235Z,87.13
2023-05-14T00:48:07.477Z,87.11
2023-05-14T00:50:34.997Z,86.32
2023-05-14T00:53:16.162Z,85.88
2023-05-14T00:55:45.924Z,86.68
2023-05-14T00:58:14.663Z,86.78
2023-05-14T01:00:42.536Z,86.30
2023-05-14T01:03:11.800Z,86.50
2023-05-14T01:06:25.002Z,86.48
2023-05-14T01:09:20.692Z,85.69
2023-05-14T01:12:06.676Z,86.34
2023-05-14T01:14:36.591Z,86.31
2023-05-14T01:17:08.280Z,86.45
2023-05-14T01:19:48.710Z,86.56
2023-05-14T01:22:16.681Z,86.92
2023-05-14T01:24:46.649Z,87.44
2023-05-14T01:27:19.655Z,87.28
2023-05-14T01:30:06.733Z,86.39
2023-05-14T01:32:38.320Z,85.37
2023-05-14T01:35:08.839Z,85.26
2023-05-14T01:37:37.234Z,85.28
2023-05-14T01:40:09.824Z,86.04
2023-05-14T01:42:37.898Z,86.31
2023-05-14T01:45:09.292Z,85.84
2023-05-14T01:47:36.421Z,86.16
2023-05-14T01:50:03.581Z,86.71
2023-05-14T01:52:30.751Z,86.99
2023-05-14T01:54:58.756Z,86.14
2023-05-14T01:57:26.020Z,85.20
2023-05-14T01:59:53.026Z,85.62
2023-05-14T02:02:20.580Z,86.58
2023-05-14T02:04:47.664Z,85.87
2023-05-14T02:07:14.649Z,84.64
2023-05-14T02:09:41.848Z,84.39
2023-05-14T02:12:10.905Z,85.78
2023-05-14T02:14:38.075Z,85.36
2023-05-14T02:17:07.917Z,85.53
2023-05-14T02:19:34.978Z,86.32
2023-05-14T02:22:02.058Z,85.54
2023-05-14T02:24:29.168Z,84.79
2023-05-14T02:26:56.398Z,85.33
2023-05-14T02:29:23.464Z,85.90
2023-05-14T02:31:50.565Z,86.10
2023-05-14T02:34:17.663Z,85.21
2023-05-14T02:36:48.776Z,84.43
2023-05-14T02:39:16.987Z,85.23
2023-05-14T02:41:44.169Z,85.82
2023-05-14T02:44:11.249Z,86.16
2023-05-14T02:46:38.275Z,86.47
2023-05-14T02:49:05.417Z,86.06
2023-05-14T02:51:36.100Z,86.08
2023-05-14T02:54:05.904Z,85.54
2023-05-14T02:56:32.956Z,85.74
2023-05-14T02:59:02.890Z,86.43
2023-05-14T03:01:30.839Z,86.22
2023-05-14T03:04:06.684Z,86.40
2023-05-14T03:06:33.682Z,86.23
2023-05-14T03:09:00.892Z,86.74
2023-05-14T03:11:28.336Z,86.43
2023-05-14T03:13:55.382Z,86.28
2023-05-14T03:16:23.414Z,85.46
2023-05-14T03:19:02.015Z,86.02
2023-05-14T03:21:29.273Z,85.52
2023-05-14T03:23:56.436Z,85.04
2023-05-14T03:26:23.584Z,85.41
2023-05-14T03:28:51.882Z,86.20
2023-05-14T03:31:22.559Z,85.96
2023-05-14T03:33:49.722Z,86.93
2023-05-14T03:36:16.730Z,86.62
2023-05-14T03:38:43.673Z,86.77
2023-05-14T03:41:10.699Z,86.56
2023-05-14T03:43:37.742Z,87.63
2023-05-14T03:46:04.752Z,87.80
2023-05-14T03:48:31.879Z,88.63
2023-05-14T03:50:58.920Z,88.03
2023-05-14T03:53:25.963Z,86.35
2023-05-14T03:55:53.053Z,85.81
2023-05-14T03:58:20.042Z,85.27
2023-05-14T04:00:47.306Z,83.40
2023-05-14T04:03:17.691Z,83.02
2023-05-14T04:05:44.878Z,83.44
2023-05-14T04:08:11.840Z,84.03
2023-05-14T04:10:38.906Z,85.20
2023-05-14T04:13:06.717Z,87.37
2023-05-14T04:15:39.550Z,88.05
2023-05-14T04:18:12.717Z,87.25
2023-05-14T04:20:42.816Z,87.78
2023-05-14T04:23:09.828Z,88.00
2023-05-14T04:25:36.830Z,87.77
2023-05-14T04:28:06.735Z,86.62
2023-05-14T04:30:34.002Z,86.79
2023-05-14T04:33:00.997Z,86.38
2023-05-14T04:35:28.112Z,86.81
2023-05-14T04:37:55.231Z,88.15
2023-05-14T04:40:26.779Z,88.45
2023-05-14T04:42:55.824Z,88.97
2023-05-14T04:45:34.311Z,88.89
2023-05-14T04:48:03.515Z,89.11
2023-05-14T04:50:30.458Z,87.95
2023-05-14T04:52:57.825Z,87.34
2023-05-14T04:55:28.032Z,87.66
2023-05-14T04:57:55.585Z,87.85
2023-05-14T05:00:23.572Z,87.99
2023-05-14T05:02:51.977Z,87.83
2023-05-14T05:05:19.120Z,88.38
2023-05-14T05:07:49.086Z,88.75
2023-05-14T05:10:16.040Z,89.33
2023-05-14T05:12:43.057Z,90.18
2023-05-14T05:15:11.690Z,91.21
2023-05-14T05:17:42.638Z,90.96
2023-05-14T05:20:15.075Z,90.70
2023-05-14T05:22:41.929Z,90.52
2023-05-14T05:25:14.214Z,89.82
2023-05-14T05:27:44.537Z,89.94
2023-05-14T05:30:12.426Z,90.26
2023-05-14T05:32:42.147Z,89.06
2023-05-14T05:35:10.357Z,87.78
2023-05-14T05:37:38.610Z,87.50
2023-05-14T05:40:06.862Z,87.13
2023-05-14T05:42:35.138Z,88.14
2023-05-14T05:45:01.999Z,88.13
2023-05-14T05:47:31.834Z,88.91
2023-05-14T05:49:58.732Z,89.58
2023-05-14T05:52:28.816Z,90.83
2023-05-14T05:54:57.068Z,91.17
2023-05-14T05:57:27.705Z,91.03
2023-05-14T05:59:54.722Z,91.12
2023-05-14T06:02:22.088Z,91.29
2023-05-14T06:04:49.110Z,91.26
2023-05-14T06:07:16.105Z,91.19
2023-05-14T06:09:46.254Z,90.73
2023-05-14T06:12:17.691Z,90.61
2023-05-14T06:14:45.339Z,91.26
2023-05-14T06:17:12.320Z,90.35
2023-05-14T06:19:39.442Z,90.14
2023-05-14T06:22:16.918Z,90.30
2023-05-14T06:24:44.402Z,90.38
2023-05-14T06:27:11.967Z,89.69
2023-05-14T06:29:40.303Z,89.95
2023-05-14T06:32:10.802Z,89.38
2023-05-14T06:34:37.774Z,88.86
2023-05-14T06:37:07.767Z,87.98
2023-05-14T06:39:34.825Z,87.94
2023-05-14T06:42:03.153Z,87.74
2023-05-14T06:44:30.188Z,88.45
2023-05-14T06:46:59.006Z,88.72
2023-05-14T06:49:26.546Z,88.92
2023-05-14T06:51:56.062Z,88.47
2023-05-14T06:54:31.965Z,86.96
2023-05-14T06:56:59.568Z,86.89
2023-05-14T06:59:27.469Z,86.77
2023-05-14T07:01:54.639Z,88.42
2023-05-14T07:04:24.581Z,88.88
2023-05-14T07:06:52.267Z,88.33
2023-05-14T07:09:19.334Z,88.38
2023-05-14T07:11:53.846Z,87.61
2023-05-14T07:14:21.023Z,87.50
2023-05-14T07:16:55.559Z,87.06
2023-05-14T07:19:22.757Z,88.06
2023-05-14T07:21:53.249Z,88.86
2023-05-14T07:24:21.304Z,88.66
2023-05-14T07:26:48.591Z,87.53
2023-05-14T07:29:15.663Z,87.87
2023-05-14T07:31:43.439Z,87.13
2023-05-14T07:34:13.885Z,85.82
2023-05-14T07:36:42.039Z,85.03
2023-05-14T07:39:09.615Z,85.83
2023-05-14T07:41:36.658Z,85.34
2023-05-14T07:44:03.939Z,84.70
2023-05-14T07:46:31.728Z,85.25
2023-05-14T07:48:59.261Z,87.14
2023-05-14T07:51:29.782Z,88.23
2023-05-14T07:53:56.908Z,87.42
2023-05-14T07:56:23.979Z,86.92
2023-05-14T07:58:55.464Z,85.75
2023-05-14T08:01:23.508Z,86.11
2023-05-14T08:04:00.604Z,86.00
2023-05-14T08:06:29.303Z,87.09
2023-05-14T08:08:56.697Z,87.24
2023-05-14T08:11:23.827Z,87.29
2023-05-14T08:14:03.749Z,87.08
2023-05-14T08:16:31.156Z,87.71
2023-05-14T08:19:08.076Z,86.82
2023-05-14T08:21:35.133Z,87.13
2023-05-14T08:24:02.462Z,86.54
2023-05-14T08:26:29.562Z,85.57
2023-05-14T08:28:56.652Z,85.48
2023-05-14T08:31:23.838Z,85.96
2023-05-14T08:33:51.416Z,86.09
2023-05-14T08:36:18.500Z,86.67
2023-05-14T08:38:48.973Z,87.09
2023-05-14T08:41:20.978Z,86.56
2023-05-14T08:43:53.956Z,86.77
2023-05-14T08:46:25.058Z,87.75
2023-05-14T08:49:09.622Z,89.14
2023-05-14T08:51:37.072Z,88.54
2023-05-14T08:54:07.888Z,87.76
2023-05-14T08:56:35.217Z,85.24
2023-05-14T08:59:02.313Z,85.10
2023-05-14T09:04:35.148Z,83.61
2023-05-14T09:07:03.058Z,83.70
2023-05-14T09:09:34.298Z,81.02
2023-05-14T09:12:09.443Z,80.82
2023-05-14T09:14:36.821Z,79.74
2023-05-14T09:17:04.107Z,79.20
2023-05-14T09:19:31.596Z,76.85
2023-05-14T09:22:05.236Z,75.99
2023-05-14T09:24:34.669Z,77.82
2023-05-14T09:27:02.420Z,76.58
2023-05-14T09:29:32.642Z,74.88
2023-05-14T09:32:00.869Z,75.32
2023-05-14T09:34:30.820Z,75.67
2023-05-14T09:37:00.556Z,75.71
2023-05-14T09:39:28.974Z,73.86
2023-05-14T09:41:56.744Z,75.22
2023-05-14T09:44:32.869Z,77.43
2023-05-14T09:47:00.901Z,77.82
2023-05-14T09:49:28.603Z,76.63
2023-05-14T09:51:57.290Z,76.34
2023-05-14T09:54:27.661Z,77.47
2023-05-14T09:56:55.923Z,77.59
2023-05-14T09:59:22.939Z,77.35
2023-05-14T10:01:55.064Z,77.86
2023-05-14T10:04:26.653Z,79.17
2023-05-14T10:06:59.995Z,79.47
2023-05-14T10:09:29.966Z,79.16
2023-05-14T10:12:01.487Z,79.05
2023-05-14T10:14:46.268Z,78.96
2023-05-14T10:17:18.781Z,79.77
2023-05-14T10:19:54.148Z,80.05
2023-05-14T10:22:24.198Z,80.94
2023-05-14T10:24:53.573Z,81.55
2023-05-14T10:27:23.479Z,81.97
2023-05-14T10:29:57.386Z,81.79
2023-05-14T10:32:27.188Z,81.04
2023-05-14T10:35:06.365Z,82.09
2023-05-14T10:37:33.650Z,81.91
2023-05-14T10:40:05.289Z,82.88
2023-05-14T10:42:43.791Z,83.37
2023-05-14T10:45:13.281Z,83.72
2023-05-14T10:47:46.876Z,82.88
2023-05-14T10:50:21.120Z,83.45
2023-05-14T10:52:50.619Z,83.43
2023-05-14T10:55:17.644Z,83.69
2023-05-14T10:57:47.074Z,84.44
2023-05-14T11:00:16.884Z,84.20
2023-05-14T11:02:45.209Z,84.21
2023-05-14T11:05:22.073Z,83.34
2023-05-14T11:07:50.394Z,82.42
2023-05-14T11:10:29.325Z,82.55
2023-05-14T11:12:57.501Z,82.61
2023-05-14T11:15:30.957Z,82.38
2023-05-14T11:17:58.133Z,82.14
2023-05-14T11:20:25.502Z,82.91
2023-05-14T11:22:53.026Z,83.03
2023-05-14T11:25:20.909Z,82.72
2023-05-14T11:27:48.308Z,82.21
2023-05-14T11:30:21.440Z,83.29
2023-05-14T11:33:00.594Z,83.12
2023-05-14T11:35:28.817Z,82.48
2023-05-14T11:37:55.929Z,82.16
2023-05-14T11:40:24.808Z,82.94
2023-05-14T11:42:55.373Z,82.47
2023-05-14T11:45:27.355Z,83.34
2023-05-14T11:47:55.221Z,82.53
2023-05-14T11:50:25.755Z,82.73
2023-05-14T11:52:57.318Z,83.44
2023-05-14T11:55:28.696Z,83.87
2023-05-14T11:57:55.747Z,82.78
2023-05-14T12:00:28.579Z,80.98
2023-05-14T12:02:58.440Z,80.66
2023-05-14T12:05:29.965Z,80.78
2023-05-14T12:07:56.864Z,80.04
2023-05-14T12:10:24.252Z,79.56
2023-05-14T12:12:52.328Z,79.65
2023-05-14T12:15:19.567Z,79.63
2023-05-14T12:17:54.236Z,79.89
2023-05-14T12:20:21.199Z,80.91
2023-05-14T12:22:51.210Z,81.42
2023-05-14T12:25:27.227Z,81.20
2023-05-14T12:27:54.086Z,81.49
2023-05-14T12:30:23.710Z,82.06
2023-05-14T12:32:57.841Z,82.84
2023-05-14T12:35:25.028Z,83.75
2023-05-14T12:37:56.690Z,83.32
2023-05-14T12:40:26.414Z,84.26
2023-05-14T12:42:56.793Z,84.27
2023-05-14T12:45:24.157Z,85.21
2023-05-14T12:47:51.518Z,84.47
2023-05-14T12:50:27.069Z,84.52
2023-05-14T12:52:58.153Z,84.64
2023-05-14T12:55:32.451Z,83.58
2023-05-14T12:57:59.698Z,84.29
2023-05-14T13:00:29.870Z,83.87
2023-05-14T13:03:02.576Z,83.61
2023-05-14T13:05:29.823Z,81.49
2023-05-14T13:08:04.255Z,81.81
2023-05-14T13:10:31.199Z,83.69
2023-05-14T13:12:58.556Z,82.44
2023-05-14T13:15:25.900Z,82.24
2023-05-14T13:17:53.178Z,81.45
2023-05-14T13:20:27.740Z,82.30
2023-05-14T13:22:54.645Z,81.34
2023-05-14T13:25:30.691Z,81.94
2023-05-14T13:27:57.635Z,80.63
2023-05-14T13:30:25.269Z,80.54
2023-05-14T13:32:52.403Z,81.30
2023-05-14T13:35:19.499Z,81.88
2023-05-14T13:37:51.204Z,81.24
2023-05-14T13:40:23.033Z,80.73
2023-05-14T13:42:52.254Z,78.43
2023-05-14T13:45:19.843Z,78.63
2023-05-14T13:47:47.225Z,80.40
2023-05-14T13:50:16.880Z,78.43
2023-05-14T13:52:44.810Z,78.72
2023-05-14T13:55:11.933Z,78.65
2023-05-14T13:57:41.859Z,76.71
2023-05-14T14:00:09.781Z,77.32
2023-05-14T14:02:37.219Z,77.98
2023-05-14T14:05:08.326Z,77.21
2023-05-14T14:07:36.509Z,77.23
2023-05-14T14:10:03.413Z,76.76
2023-05-14T14:12:30.406Z,75.38
2023-05-14T14:15:00.169Z,75.22
2023-05-14T14:17:30.173Z,74.46
2023-05-14T14:19:58.987Z,74.82
2023-05-14T14:22:29.086Z,73.96
2023-05-14T14:24:56.386Z,74.52
2023-05-14T14:27:25.660Z,76.73
2023-05-14T14:29:52.864Z,77.33
2023-05-14T14:32:20.754Z,76.55
2023-05-14T14:34:51.655Z,76.01
2023-05-14T14:37:21.170Z,74.92
2023-05-14T14:39:53.089Z,75.19
2023-05-14T14:42:24.161Z,73.59
2023-05-14T14:44:51.165Z,73.05
2023-05-14T14:47:20.937Z,73.63
2023-05-14T14:49:47.830Z,73.24
2023-05-14T14:52:20.558Z,72.88
2023-05-14T14:54:52.662Z,73.05
2023-05-14T14:57:22.709Z,71.01
2023-05-14T14:59:56.570Z,72.13
2023-05-14T15:02:26.247Z,72.58
2023-05-14T15:04:55.382Z,72.79
2023-05-14T15:07:23.620Z,74.52
2023-05-14T15:09:51.109Z,74.04
2023-05-14T15:12:21.300Z,73.09
2023-05-14T15:14:48.691Z,73.55
2023-05-14T15:17:15.834Z,73.24
2023-05-14T15:19:43.462Z,71.41
2023-05-14T15:22:11.338Z,72.47
2023-05-14T15:24:41.763Z,72.63
2023-05-14T15:27:09.793Z,72.86
2023-05-14T15:29:41.454Z,73.21
2023-05-14T15:32:11.292Z,73.81
2023-05-14T15:34:43.197Z,74.31
2023-05-14T15:37:19.299Z,73.87
2023-05-14T15:39:48.143Z,73.27
2023-05-14T15:42:16.465Z,73.16
2023-05-14T15:44:48.477Z,73.09
2023-05-14T15:47:18.666Z,73.25
2023-05-14T15:49:48.350Z,73.38
2023-05-14T15:52:16.999Z,73.24
2023-05-14T15:54:47.113Z,73.04
2023-05-14T15:57:14.370Z,72.88
2023-05-14T15:59:41.830Z,72.49
2023-05-14T16:02:12.001Z,72.65
2023-05-14T16:04:39.215Z,72.61
2023-05-14T16:07:10.001Z,72.21
2023-05-14T16:09:38.442Z,70.24
2023-05-14T16:12:06.337Z,67.31
2023-05-14T16:14:41.837Z,67.88
2023-05-14T16:17:10.108Z,68.67
2023-05-14T16:19:39.453Z,69.10
2023-05-14T16:22:11.774Z,69.72
2023-05-14T16:24:38.666Z,70.54
2023-05-14T16:27:10.535Z,70.77
2023-05-14T16:29:39.888Z,71.23
2023-05-14T16:32:07.317Z,70.89
2023-05-14T16:34:34.314Z,70.63
2023-05-14T16:37:06.714Z,71.00
2023-05-14T16:39:39.327Z,70.81
2023-05-14T16:42:08.168Z,71.46
2023-05-14T16:44:35.182Z,70.53
2023-05-14T16:47:02.472Z,71.25
2023-05-14T16:49:29.945Z,71.10
2023-05-14T16:51:56.979Z,71.57
2023-05-14T16:54:25.775Z,71.85
2023-05-14T16:56:55.209Z,71.14
2023-05-14T16:59:34.198Z,70.95
2023-05-14T17:02:01.254Z,70.21
2023-05-14T17:04:28.426Z,70.00
2023-05-14T17:07:08.944Z,71.12
2023-05-14T17:09:38.967Z,72.47
2023-05-14T17:12:09.982Z,72.38
2023-05-14T17:14:43.820Z,72.26
2023-05-14T17:17:10.880Z,73.47
2023-05-14T17:19:41.161Z,73.39
2023-05-14T17:22:09.319Z,73.88
2023-05-14T17:24:39.726Z,73.43
2023-05-14T17:27:15.958Z,73.04
2023-05-14T17:29:44.695Z,73.15
2023-05-14T17:32:11.917Z,73.48
2023-05-14T17:34:39.922Z,73.30
2023-05-14T17:37:07.215Z,74.04
2023-05-14T17:39:34.227Z,75.00
2023-05-14T17:42:04.528Z,75.09
2023-05-14T17:44:31.703Z,73.84
2023-05-14T17:47:00.944Z,73.02
2023-05-14T17:49:31.561Z,73.72
2023-05-14T17:51:58.531Z,74.33
2023-05-14T17:54:27.343Z,73.78
2023-05-14T17:56:55.025Z,74.11
2023-05-14T17:59:24.382Z,74.05
2023-05-14T18:02:00.576Z,73.94
2023-05-14T18:04:31.994Z,74.22
2023-05-14T18:07:03.986Z,73.44
2023-05-14T18:09:32.428Z,72.49
2023-05-14T18:12:00.312Z,74.83
2023-05-14T18:14:32.297Z,75.51
2023-05-14T18:16:59.756Z,74.56
2023-05-14T18:19:26.865Z,73.47
2023-05-14T18:21:57.617Z,74.89
2023-05-14T18:24:32.228Z,72.87
2023-05-14T18:27:00.303Z,73.48
2023-05-14T18:29:30.527Z,75.09
2023-05-14T18:31:57.563Z,76.59
2023-05-14T18:34:24.726Z,76.27
2023-05-14T18:36:51.684Z,75.13
2023-05-14T18:39:22.301Z,73.29
2023-05-14T18:41:51.555Z,72.26
2023-05-14T18:44:25.109Z,74.63
2023-05-14T18:46:52.663Z,74.75
2023-05-14T18:49:19.642Z,75.65
2023-05-14T18:51:52.895Z,79.05
2023-05-14T18:54:23.152Z,79.83
2023-05-14T18:57:06.570Z,78.15
2023-05-14T18:59:37.821Z,78.73
2023-05-14T19:02:09.958Z,78.64
2023-05-14T19:04:51.875Z,79.90
2023-05-14T19:07:24.478Z,80.99
2023-05-14T19:09:53.735Z,79.24
2023-05-14T19:12:21.308Z,80.00
2023-05-14T19:14:49.072Z,80.53
2023-05-14T19:17:26.721Z,81.03
2023-05-14T19:19:56.062Z,80.73
2023-05-14T19:22:24.473Z,81.64
2023-05-14T19:24:53.861Z,83.21
2023-05-14T19:27:26.735Z,82.45
2023-05-14T19:29:55.946Z,81.29
2023-05-14T19:32:24.419Z,80.46
2023-05-14T19:34:59.210Z,80.48
2023-05-14T19:37:28.181Z,82.04
2023-05-14T19:39:55.748Z,82.67
2023-05-14T19:42:26.470Z,81.95
2023-05-14T19:44:59.345Z,83.33
2023-05-14T19:47:34.629Z,84.83
2023-05-14T19:50:01.937Z,83.78
2023-05-14T19:52:31.893Z,84.55
2023-05-14T19:55:03.676Z,82.54
2023-05-14T19:57:31.623Z,83.21
2023-05-14T20:00:10.203Z,81.58
2023-05-14T20:02:41.299Z,80.00
2023-05-14T20:05:09.573Z,83.16
2023-05-14T20:07:44.151Z,82.28
2023-05-14T20:10:11.897Z,84.83
2023-05-14T20:12:42.833Z,83.57
2023-05-14T20:15:14.942Z,83.57
2023-05-14T20:17:43.331Z,83.98
2023-05-14T20:20:18.423Z,83.93
2023-05-14T20:22:47.510Z,83.03
2023-05-14T20:25:14.722Z,83.15
2023-05-14T20:27:44.699Z,85.18
2023-05-14T20:30:14.348Z,86.41
2023-05-14T20:32:42.204Z,87.01
2023-05-14T20:35:13.925Z,88.01
2023-05-14T20:38:06.917Z,83.98
2023-05-14T20:40:37.871Z,80.41
2023-05-14T20:43:05.757Z,81.64
2023-05-14T20:45:35.532Z,80.36
2023-05-14T20:48:14.981Z,81.53
2023-05-14T20:50:43.163Z,84.02
2023-05-14T20:53:21.260Z,83.92
2023-05-14T20:55:49.308Z,84.18
2023-05-14T20:58:17.009Z,85.03
2023-05-14T21:00:48.206Z,85.68
2023-05-14T21:03:19.943Z,85.88
2023-05-14T21:05:48.932Z,86.08
2023-05-14T21:08:17.216Z,84.88
2023-05-14T21:10:51.565Z,85.11
2023-05-14T21:13:20.887Z,83.77
2023-05-14T21:15:50.818Z,83.47
2023-05-14T21:18:23.578Z,82.15
2023-05-14T21:20:59.258Z,81.75
2023-05-14T21:23:44.180Z,81.59
2023-05-14T21:26:24.812Z,82.34
2023-05-14T21:28:52.031Z,83.03
2023-05-14T21:31:21.190Z,82.96
2023-05-14T21:33:50.401Z,83.21
2023-05-14T21:36:27.135Z,83.08
2023-05-14T21:38:54.362Z,83.31
2023-05-14T21:41:30.686Z,82.41
2023-05-14T21:43:58.195Z,82.42
2023-05-14T21:46:33.300Z,81.38
2023-05-14T21:49:02.290Z,81.17
2023-05-14T21:51:29.803Z,81.85
2023-05-14T21:53:59.006Z,81.92
2023-05-14T21:56:33.045Z,82.38
2023-05-14T21:59:02.857Z,83.27
2023-05-14T22:01:46.025Z,83.51
2023-05-14T22:04:34.112Z,83.84
2023-05-14T22:07:02.279Z,83.82
2023-05-14T22:09:30.795Z,83.60
2023-05-14T22:12:12.891Z,83.26
2023-05-14T22:14:41.546Z,83.57
2023-05-14T22:17:14.204Z,82.84
2023-05-14T22:19:41.275Z,83.24
2023-05-14T22:22:12.621Z,83.12
2023-05-14T22:24:44.110Z,82.45
2023-05-14T22:27:11.315Z,81.85
2023-05-14T22:29:41.894Z,81.44
2023-05-14T22:32:17.554Z,81.84
2023-05-14T22:34:57.132Z,82.19
2023-05-14T22:37:24.047Z,82.54
2023-05-14T22:39:51.069Z,83.53
2023-05-14T22:42:18.171Z,82.85
2023-05-14T22:44:52.179Z,81.11
2023-05-14T22:47:22.367Z,81.91
2023-05-14T22:49:52.523Z,82.92
2023-05-14T22:52:19.776Z,81.93
2023-05-14T22:54:53.404Z,82.28
2023-05-14T22:57:23.162Z,83.17
2023-05-14T22:59:50.073Z,83.38
2023-05-14T23:02:17.405Z,83.44
2023-05-14T23:04:46.664Z,83.17
2023-05-14T23:07:16.510Z,82.64
2023-05-14T23:09:44.309Z,82.57
2023-05-14T23:12:11.176Z,82.60
2023-05-14T23:14:38.350Z,82.40
2023-05-14T23:17:05.642Z,81.74
2023-05-14T23:19:32.612Z,81.74
2023-05-14T23:22:02.700Z,81.36
2023-05-14T23:24:30.281Z,80.91
2023-05-14T23:26:57.262Z,81.28
2023-05-14T23:29:28.865Z,81.26
2023-05-14T23:31:55.860Z,81.58
2023-05-14T23:34:25.788Z,81.57
2023-05-14T23:36:55.725Z,80.69
2023-05-14T23:39:24.432Z,80.96
2023-05-14T23:42:01.934Z,79.98
2023-05-14T23:44:32.004Z,79.98
2023-05-14T23:46:59.056Z,80.03
2023-05-14T23:49:26.561Z,79.93
2023-05-14T23:51:53.462Z,81.04
2023-05-14T23:54:23.582Z,81.72
2023-05-14T23:56:50.780Z,81.48
2023-05-14T23:59:21.299Z,80.52
